sensor_id;sensor_type;location;lat;lon;timestamp;pressure;altitude;pressure_sealevel;temperature;humidity
14689;BME280;7432;48.728;9.154;2022-08-01T00:02:11;96635.31;;;21.42;53.64
14689;BME280;7432;48.728;9.154;2022-08-01T00:04:38;96631.91;;;21.41;54.03
14689;BME280;7432;48.728;9.154;2022-08-01T00:07:04;96633.03;;;21.34;54.10
14689;BME280;7432;48.728;9.154;2022-08-01T00:09:31;96634.47;;;21.30;54.87
14689;BME280;7432;48.728;9.154;2022-08-01T00:11:58;96640.59;;;21.23;54.78
14689;BME280;7432;48.728;9.154;2022-08-01T00:14:25;96632.53;;;21.25;54.74
14689;BME280;7432;48.728;9.154;2022-08-01T00:16:51;96638.00;;;21.23;54.42
14689;BME280;7432;48.728;9.154;2022-08-01T00:19:18;96634.69;;;21.16;54.88
14689;BME280;7432;48.728;9.154;2022-08-01T00:21:44;96634.31;;;21.13;55.34
14689;BME280;7432;48.728;9.154;2022-08-01T00:24:11;96637.50;;;21.15;55.10
14689;BME280;7432;48.728;9.154;2022-08-01T00:26:37;96639.91;;;21.16;54.67
14689;BME280;7432;48.728;9.154;2022-08-01T00:29:05;96646.97;;;21.16;54.38
14689;BME280;7432;48.728;9.154;2022-08-01T00:31:31;96640.72;;;21.17;54.33
14689;BME280;7432;48.728;9.154;2022-08-01T00:33:58;96644.09;;;21.17;54.53
14689;BME280;7432;48.728;9.154;2022-08-01T00:36:24;96650.59;;;21.15;54.25
14689;BME280;7432;48.728;9.154;2022-08-01T00:38:50;96645.50;;;21.20;54.44
14689;BME280;7432;48.728;9.154;2022-08-01T00:41:17;96650.16;;;21.18;54.96
14689;BME280;7432;48.728;9.154;2022-08-01T00:43:43;96649.00;;;21.14;54.94
14689;BME280;7432;48.728;9.154;2022-08-01T00:46:11;96655.50;;;21.11;54.60
14689;BME280;7432;48.728;9.154;2022-08-01T00:48:38;96650.59;;;21.15;54.50
14689;BME280;7432;48.728;9.154;2022-08-01T00:51:04;96643.78;;;21.14;54.84
14689;BME280;7432;48.728;9.154;2022-08-01T00:53:31;96656.50;;;21.10;54.83
14689;BME280;7432;48.728;9.154;2022-08-01T00:55:58;96651.63;;;21.14;55.18
14689;BME280;7432;48.728;9.154;2022-08-01T00:58:24;96652.66;;;21.13;55.18
14689;BME280;7432;48.728;9.154;2022-08-01T01:00:53;96655.13;;;21.08;55.92
14689;BME280;7432;48.728;9.154;2022-08-01T01:03:23;96653.53;;;21.07;55.68
14689;BME280;7432;48.728;9.154;2022-08-01T01:05:58;96649.50;;;21.04;55.76
14689;BME280;7432;48.728;9.154;2022-08-01T01:08:31;96647.69;;;21.05;55.49
14689;BME280;7432;48.728;9.154;2022-08-01T01:11:03;96652.50;;;21.08;55.48
14689;BME280;7432;48.728;9.154;2022-08-01T01:13:36;96648.88;;;21.09;55.35
14689;BME280;7432;48.728;9.154;2022-08-01T01:16:07;96656.56;;;21.04;56.02
14689;BME280;7432;48.728;9.154;2022-08-01T01:18:40;96658.41;;;21.03;56.65
14689;BME280;7432;48.728;9.154;2022-08-01T01:21:21;96657.91;;;20.95;56.97
14689;BME280;7432;48.728;9.154;2022-08-01T01:23:54;96663.00;;;20.90;56.96
14689;BME280;7432;48.728;9.154;2022-08-01T01:26:36;96656.28;;;20.94;56.64
14689;BME280;7432;48.728;9.154;2022-08-01T01:29:11;96668.75;;;20.98;56.65
14689;BME280;7432;48.728;9.154;2022-08-01T01:31:44;96662.56;;;20.93;57.50
14689;BME280;7432;48.728;9.154;2022-08-01T01:34:13;96664.59;;;20.91;57.19
14689;BME280;7432;48.728;9.154;2022-08-01T01:36:42;96664.69;;;20.84;57.98
14689;BME280;7432;48.728;9.154;2022-08-01T01:39:10;96665.31;;;20.80;57.86
14689;BME280;7432;48.728;9.154;2022-08-01T01:41:40;96653.72;;;20.76;58.07
14689;BME280;7432;48.728;9.154;2022-08-01T01:44:09;96667.81;;;20.75;57.99
14689;BME280;7432;48.728;9.154;2022-08-01T01:46:37;96665.41;;;20.73;58.08
14689;BME280;7432;48.728;9.154;2022-08-01T01:49:05;96667.66;;;20.69;58.77
14689;BME280;7432;48.728;9.154;2022-08-01T01:51:35;96675.75;;;20.68;59.02
14689;BME280;7432;48.728;9.154;2022-08-01T01:54:04;96672.47;;;20.73;58.81
14689;BME280;7432;48.728;9.154;2022-08-01T01:56:32;96673.34;;;20.66;58.68
14689;BME280;7432;48.728;9.154;2022-08-01T01:59:01;96682.66;;;20.62;59.10
14689;BME280;7432;48.728;9.154;2022-08-01T02:01:32;96676.38;;;20.63;59.46
14689;BME280;7432;48.728;9.154;2022-08-01T02:04:01;96668.31;;;20.65;58.73
14689;BME280;7432;48.728;9.154;2022-08-01T02:06:29;96660.69;;;20.63;58.86
14689;BME280;7432;48.728;9.154;2022-08-01T02:08:59;96662.16;;;20.59;59.56
14689;BME280;7432;48.728;9.154;2022-08-01T02:11:26;96670.44;;;20.56;60.01
14689;BME280;7432;48.728;9.154;2022-08-01T02:13:56;96660.97;;;20.55;60.54
14689;BME280;7432;48.728;9.154;2022-08-01T02:16:25;96660.41;;;20.53;60.65
14689;BME280;7432;48.728;9.154;2022-08-01T02:18:53;96670.16;;;20.46;61.42
14689;BME280;7432;48.728;9.154;2022-08-01T02:21:25;96676.00;;;20.42;62.07
14689;BME280;7432;48.728;9.154;2022-08-01T02:23:53;96672.16;;;20.44;61.77
14689;BME280;7432;48.728;9.154;2022-08-01T02:26:22;96665.16;;;20.38;62.50
14689;BME280;7432;48.728;9.154;2022-08-01T02:28:53;96668.81;;;20.37;62.64
14689;BME280;7432;48.728;9.154;2022-08-01T02:31:22;96670.69;;;20.30;63.08
14689;BME280;7432;48.728;9.154;2022-08-01T02:33:56;96667.31;;;20.23;63.66
14689;BME280;7432;48.728;9.154;2022-08-01T02:36:25;96671.56;;;20.24;63.98
14689;BME280;7432;48.728;9.154;2022-08-01T02:38:54;96669.41;;;20.15;63.98
14689;BME280;7432;48.728;9.154;2022-08-01T02:41:24;96677.34;;;20.08;63.93
14689;BME280;7432;48.728;9.154;2022-08-01T02:43:55;96686.22;;;20.00;64.56
14689;BME280;7432;48.728;9.154;2022-08-01T02:46:33;96680.84;;;19.95;64.64
14689;BME280;7432;48.728;9.154;2022-08-01T02:49:04;96679.47;;;19.93;64.89
14689;BME280;7432;48.728;9.154;2022-08-01T02:51:32;96689.09;;;19.92;65.07
14689;BME280;7432;48.728;9.154;2022-08-01T02:54:01;96697.19;;;19.91;65.66
14689;BME280;7432;48.728;9.154;2022-08-01T02:56:31;96696.22;;;19.85;65.60
14689;BME280;7432;48.728;9.154;2022-08-01T02:59:02;96697.59;;;19.88;64.86
14689;BME280;7432;48.728;9.154;2022-08-01T03:01:31;96690.19;;;19.85;65.00
14689;BME280;7432;48.728;9.154;2022-08-01T03:04:01;96697.22;;;19.84;65.52
14689;BME280;7432;48.728;9.154;2022-08-01T03:06:29;96686.41;;;19.81;65.80
14689;BME280;7432;48.728;9.154;2022-08-01T03:08:57;96693.88;;;19.77;65.67
14689;BME280;7432;48.728;9.154;2022-08-01T03:11:25;96690.28;;;19.72;66.09
14689;BME280;7432;48.728;9.154;2022-08-01T03:13:53;96683.06;;;19.67;66.10
14689;BME280;7432;48.728;9.154;2022-08-01T03:16:22;96686.53;;;19.61;66.33
14689;BME280;7432;48.728;9.154;2022-08-01T03:18:53;96692.19;;;19.58;66.58
14689;BME280;7432;48.728;9.154;2022-08-01T03:21:22;96692.38;;;19.57;66.65
14689;BME280;7432;48.728;9.154;2022-08-01T03:23:50;96688.22;;;19.49;66.78
14689;BME280;7432;48.728;9.154;2022-08-01T03:26:22;96688.28;;;19.42;66.92
14689;BME280;7432;48.728;9.154;2022-08-01T03:28:51;96691.88;;;19.41;67.27
14689;BME280;7432;48.728;9.154;2022-08-01T03:31:19;96687.25;;;19.43;67.35
14689;BME280;7432;48.728;9.154;2022-08-01T03:33:46;96690.25;;;19.47;67.40
14689;BME280;7432;48.728;9.154;2022-08-01T03:36:13;96687.47;;;19.42;67.58
14689;BME280;7432;48.728;9.154;2022-08-01T03:38:44;96690.28;;;19.40;67.86
14689;BME280;7432;48.728;9.154;2022-08-01T03:41:16;96690.50;;;19.39;68.13
14689;BME280;7432;48.728;9.154;2022-08-01T03:43:48;96688.69;;;19.33;68.29
14689;BME280;7432;48.728;9.154;2022-08-01T03:46:20;96684.09;;;19.28;68.62
14689;BME280;7432;48.728;9.154;2022-08-01T03:48:50;96691.53;;;19.31;68.83
14689;BME280;7432;48.728;9.154;2022-08-01T03:51:21;96688.91;;;19.31;69.07
14689;BME280;7432;48.728;9.154;2022-08-01T03:53:50;96690.72;;;19.31;69.07
14689;BME280;7432;48.728;9.154;2022-08-01T03:56:18;96690.50;;;19.32;69.44
14689;BME280;7432;48.728;9.154;2022-08-01T03:58:46;96694.31;;;19.36;69.53
14689;BME280;7432;48.728;9.154;2022-08-01T04:01:13;96691.53;;;19.31;69.66
14689;BME280;7432;48.728;9.154;2022-08-01T04:03:41;96689.50;;;19.33;69.58
14689;BME280;7432;48.728;9.154;2022-08-01T04:06:07;96696.09;;;19.36;69.64
14689;BME280;7432;48.728;9.154;2022-08-01T04:08:35;96691.88;;;19.35;69.57
14689;BME280;7432;48.728;9.154;2022-08-01T04:11:03;96694.09;;;19.38;69.63
14689;BME280;7432;48.728;9.154;2022-08-01T04:13:30;96695.72;;;19.39;69.85
14689;BME280;7432;48.728;9.154;2022-08-01T04:15:58;96697.91;;;19.42;69.85
14689;BME280;7432;48.728;9.154;2022-08-01T04:18:24;96698.25;;;19.52;69.32
14689;BME280;7432;48.728;9.154;2022-08-01T04:20:51;96707.47;;;19.55;69.38
14689;BME280;7432;48.728;9.154;2022-08-01T04:23:19;96704.59;;;19.63;69.57
14689;BME280;7432;48.728;9.154;2022-08-01T04:25:47;96704.94;;;19.73;69.40
14689;BME280;7432;48.728;9.154;2022-08-01T04:28:17;96709.13;;;19.80;68.92
14689;BME280;7432;48.728;9.154;2022-08-01T04:30:46;96717.53;;;19.82;68.59
14689;BME280;7432;48.728;9.154;2022-08-01T04:33:17;96712.44;;;19.94;68.25
14689;BME280;7432;48.728;9.154;2022-08-01T04:35:46;96712.78;;;19.97;68.04
14689;BME280;7432;48.728;9.154;2022-08-01T04:38:15;96717.34;;;20.08;67.57
14689;BME280;7432;48.728;9.154;2022-08-01T04:40:44;96726.13;;;20.14;67.57
14689;BME280;7432;48.728;9.154;2022-08-01T04:43:11;96716.22;;;20.23;67.28
14689;BME280;7432;48.728;9.154;2022-08-01T04:45:40;96723.66;;;20.26;67.01
14689;BME280;7432;48.728;9.154;2022-08-01T04:48:09;96725.44;;;20.32;67.51
14689;BME280;7432;48.728;9.154;2022-08-01T04:50:36;96722.81;;;20.32;67.29
14689;BME280;7432;48.728;9.154;2022-08-01T04:53:03;96716.53;;;20.33;67.16
14689;BME280;7432;48.728;9.154;2022-08-01T04:55:30;96716.88;;;20.43;67.08
14689;BME280;7432;48.728;9.154;2022-08-01T04:57:56;96719.09;;;20.39;67.70
14689;BME280;7432;48.728;9.154;2022-08-01T05:00:23;96710.09;;;20.35;68.00
14689;BME280;7432;48.728;9.154;2022-08-01T05:02:51;96708.06;;;20.37;68.78
14689;BME280;7432;48.728;9.154;2022-08-01T05:05:17;96708.44;;;20.41;68.55
14689;BME280;7432;48.728;9.154;2022-08-01T05:07:45;96703.63;;;20.38;70.95
14689;BME280;7432;48.728;9.154;2022-08-01T05:10:12;96703.41;;;20.39;71.15
14689;BME280;7432;48.728;9.154;2022-08-01T05:12:38;96707.41;;;20.42;70.99
14689;BME280;7432;48.728;9.154;2022-08-01T05:15:06;96696.09;;;20.48;70.77
14689;BME280;7432;48.728;9.154;2022-08-01T05:17:33;96694.13;;;20.61;70.29
14689;BME280;7432;48.728;9.154;2022-08-01T05:20:00;96691.19;;;20.88;68.99
14689;BME280;7432;48.728;9.154;2022-08-01T05:22:27;96691.25;;;21.17;68.08
14689;BME280;7432;48.728;9.154;2022-08-01T05:24:54;96689.44;;;21.48;66.16
14689;BME280;7432;48.728;9.154;2022-08-01T05:27:20;96691.00;;;21.78;65.02
14689;BME280;7432;48.728;9.154;2022-08-01T05:29:47;96700.31;;;22.04;64.15
14689;BME280;7432;48.728;9.154;2022-08-01T05:32:13;96699.41;;;22.22;62.76
14689;BME280;7432;48.728;9.154;2022-08-01T05:34:39;96697.81;;;22.32;61.91
14689;BME280;7432;48.728;9.154;2022-08-01T05:37:07;96710.94;;;22.32;61.91
14689;BME280;7432;48.728;9.154;2022-08-01T05:39:35;96702.38;;;22.14;62.65
14689;BME280;7432;48.728;9.154;2022-08-01T05:42:01;96710.69;;;22.11;63.17
14689;BME280;7432;48.728;9.154;2022-08-01T05:44:28;96709.13;;;22.10;63.50
14689;BME280;7432;48.728;9.154;2022-08-01T05:46:55;96716.75;;;22.23;62.72
14689;BME280;7432;48.728;9.154;2022-08-01T05:49:21;96718.03;;;22.32;62.99
14689;BME280;7432;48.728;9.154;2022-08-01T05:51:47;96715.28;;;22.50;62.06
14689;BME280;7432;48.728;9.154;2022-08-01T05:54:15;96717.09;;;22.61;61.67
14689;BME280;7432;48.728;9.154;2022-08-01T05:56:42;96711.28;;;22.71;62.00
14689;BME280;7432;48.728;9.154;2022-08-01T05:59:08;96714.25;;;22.74;61.22
14689;BME280;7432;48.728;9.154;2022-08-01T06:01:34;96717.88;;;22.96;60.72
14689;BME280;7432;48.728;9.154;2022-08-01T06:04:01;96711.66;;;23.14;60.47
14689;BME280;7432;48.728;9.154;2022-08-01T06:06:27;96718.38;;;23.22;60.11
14689;BME280;7432;48.728;9.154;2022-08-01T06:08:54;96726.34;;;23.27;60.09
14689;BME280;7432;48.728;9.154;2022-08-01T06:11:21;96726.22;;;23.62;59.54
14689;BME280;7432;48.728;9.154;2022-08-01T06:13:48;96729.91;;;24.39;56.35
14689;BME280;7432;48.728;9.154;2022-08-01T06:16:15;96740.13;;;25.12;55.05
14689;BME280;7432;48.728;9.154;2022-08-01T06:18:41;96732.03;;;25.93;52.47
14689;BME280;7432;48.728;9.154;2022-08-01T06:21:07;96733.34;;;26.96;50.30
14689;BME280;7432;48.728;9.154;2022-08-01T06:23:34;96737.31;;;28.57;47.54
14689;BME280;7432;48.728;9.154;2022-08-01T06:26:00;96741.56;;;30.87;42.47
14689;BME280;7432;48.728;9.154;2022-08-01T06:28:29;96750.97;;;33.67;37.46
14689;BME280;7432;48.728;9.154;2022-08-01T06:30:55;96747.34;;;35.78;34.25
14689;BME280;7432;48.728;9.154;2022-08-01T06:33:23;96759.78;;;37.65;31.89
14689;BME280;7432;48.728;9.154;2022-08-01T06:35:50;96752.56;;;38.96;29.70
14689;BME280;7432;48.728;9.154;2022-08-01T06:38:16;96755.28;;;39.33;28.48
14689;BME280;7432;48.728;9.154;2022-08-01T06:40:43;96756.53;;;40.27;28.17
14689;BME280;7432;48.728;9.154;2022-08-01T06:43:09;96757.75;;;40.57;27.24
14689;BME280;7432;48.728;9.154;2022-08-01T06:45:38;96764.91;;;40.65;27.23
14689;BME280;7432;48.728;9.154;2022-08-01T06:48:05;96762.06;;;40.46;27.48
14689;BME280;7432;48.728;9.154;2022-08-01T06:50:31;96760.16;;;40.90;26.32
14689;BME280;7432;48.728;9.154;2022-08-01T06:52:58;96759.25;;;40.55;26.83
14689;BME280;7432;48.728;9.154;2022-08-01T06:55:24;96767.19;;;40.36;26.37
14689;BME280;7432;48.728;9.154;2022-08-01T06:57:52;96764.94;;;39.98;27.62
14689;BME280;7432;48.728;9.154;2022-08-01T07:00:20;96767.09;;;39.92;27.01
14689;BME280;7432;48.728;9.154;2022-08-01T07:02:48;96762.06;;;39.79;27.80
14689;BME280;7432;48.728;9.154;2022-08-01T07:05:15;96763.00;;;40.81;26.17
14689;BME280;7432;48.728;9.154;2022-08-01T07:07:41;96770.84;;;41.84;25.44
14689;BME280;7432;48.728;9.154;2022-08-01T07:10:09;96768.69;;;42.70;24.62
14689;BME280;7432;48.728;9.154;2022-08-01T07:12:36;96766.13;;;43.26;24.00
14689;BME280;7432;48.728;9.154;2022-08-01T07:15:04;96767.31;;;43.77;23.42
14689;BME280;7432;48.728;9.154;2022-08-01T07:17:30;96774.09;;;43.38;23.67
14689;BME280;7432;48.728;9.154;2022-08-01T07:19:58;96768.31;;;43.95;22.93
14689;BME280;7432;48.728;9.154;2022-08-01T07:22:25;96766.47;;;44.36;22.85
14689;BME280;7432;48.728;9.154;2022-08-01T07:24:51;96771.34;;;44.20;22.58
14689;BME280;7432;48.728;9.154;2022-08-01T07:27:17;96773.59;;;43.85;23.24
14689;BME280;7432;48.728;9.154;2022-08-01T07:29:44;96766.31;;;43.92;22.37
14689;BME280;7432;48.728;9.154;2022-08-01T07:32:10;96770.47;;;43.56;22.96
14689;BME280;7432;48.728;9.154;2022-08-01T07:34:37;96772.75;;;44.40;22.67
14689;BME280;7432;48.728;9.154;2022-08-01T07:37:04;96764.34;;;43.89;23.01
14689;BME280;7432;48.728;9.154;2022-08-01T07:39:31;96765.06;;;44.16;22.52
14689;BME280;7432;48.728;9.154;2022-08-01T07:41:58;96756.72;;;42.51;24.30
14689;BME280;7432;48.728;9.154;2022-08-01T07:44:24;96759.25;;;41.02;25.23
14689;BME280;7432;48.728;9.154;2022-08-01T07:46:51;96748.13;;;38.68;27.65
14689;BME280;7432;48.728;9.154;2022-08-01T07:49:17;96752.28;;;36.82;29.21
14689;BME280;7432;48.728;9.154;2022-08-01T07:51:44;96742.13;;;36.42;31.25
14689;BME280;7432;48.728;9.154;2022-08-01T07:54:11;96744.03;;;35.81;31.27
14689;BME280;7432;48.728;9.154;2022-08-01T07:56:38;96743.94;;;35.30;32.45
14689;BME280;7432;48.728;9.154;2022-08-01T07:59:04;96741.84;;;34.48;33.27
14689;BME280;7432;48.728;9.154;2022-08-01T08:01:31;96743.97;;;34.99;32.77
14689;BME280;7432;48.728;9.154;2022-08-01T08:03:57;96739.94;;;35.10;31.83
14689;BME280;7432;48.728;9.154;2022-08-01T08:06:24;96732.78;;;35.53;31.47
14689;BME280;7432;48.728;9.154;2022-08-01T08:08:50;96743.72;;;37.56;29.92
14689;BME280;7432;48.728;9.154;2022-08-01T08:11:19;96746.53;;;39.88;27.00
14689;BME280;7432;48.728;9.154;2022-08-01T08:13:46;96752.34;;;42.05;25.05
14689;BME280;7432;48.728;9.154;2022-08-01T08:16:12;96748.25;;;42.34;24.06
14689;BME280;7432;48.728;9.154;2022-08-01T08:18:39;96732.75;;;40.60;25.78
14689;BME280;7432;48.728;9.154;2022-08-01T08:21:05;96734.06;;;37.26;29.18
14689;BME280;7432;48.728;9.154;2022-08-01T08:23:32;96725.06;;;35.43;31.15
14689;BME280;7432;48.728;9.154;2022-08-01T08:26:16;96726.56;;;34.79;32.38
14689;BME280;7432;48.728;9.154;2022-08-01T08:28:46;96734.31;;;35.29;32.02
14689;BME280;7432;48.728;9.154;2022-08-01T08:31:13;96728.59;;;37.14;30.07
14689;BME280;7432;48.728;9.154;2022-08-01T08:33:39;96731.47;;;36.71;30.53
14689;BME280;7432;48.728;9.154;2022-08-01T08:36:05;96735.13;;;38.04;28.76
14689;BME280;7432;48.728;9.154;2022-08-01T08:38:32;96729.81;;;37.25;30.13
14689;BME280;7432;48.728;9.154;2022-08-01T08:40:59;96714.59;;;35.07;32.71
14689;BME280;7432;48.728;9.154;2022-08-01T08:43:25;96718.78;;;33.94;33.87
14689;BME280;7432;48.728;9.154;2022-08-01T08:45:54;96727.38;;;32.92;35.50
14689;BME280;7432;48.728;9.154;2022-08-01T08:48:21;96716.94;;;32.17;36.79
14689;BME280;7432;48.728;9.154;2022-08-01T08:50:49;96715.59;;;32.93;35.99
14689;BME280;7432;48.728;9.154;2022-08-01T08:53:18;96722.13;;;33.77;34.32
14689;BME280;7432;48.728;9.154;2022-08-01T08:55:45;96716.03;;;35.14;33.17
14689;BME280;7432;48.728;9.154;2022-08-01T08:58:12;96724.59;;;36.99;31.12
14689;BME280;7432;48.728;9.154;2022-08-01T09:00:39;96726.16;;;38.78;28.67
14689;BME280;7432;48.728;9.154;2022-08-01T09:03:07;96734.69;;;40.32;27.09
14689;BME280;7432;48.728;9.154;2022-08-01T09:05:34;96733.03;;;40.43;25.55
14689;BME280;7432;48.728;9.154;2022-08-01T09:08:00;96733.44;;;39.74;26.86
14689;BME280;7432;48.728;9.154;2022-08-01T09:10:26;96736.84;;;39.87;26.19
14689;BME280;7432;48.728;9.154;2022-08-01T09:13:07;96732.53;;;38.73;27.41
14689;BME280;7432;48.728;9.154;2022-08-01T09:15:41;96729.81;;;37.75;29.07
14689;BME280;7432;48.728;9.154;2022-08-01T09:18:25;96727.91;;;37.96;28.74
14689;BME280;7432;48.728;9.154;2022-08-01T09:21:07;96724.72;;;36.48;30.59
14689;BME280;7432;48.728;9.154;2022-08-01T09:23:35;96721.78;;;35.72;31.64
14689;BME280;7432;48.728;9.154;2022-08-01T09:26:05;96723.47;;;34.33;32.59
14689;BME280;7432;48.728;9.154;2022-08-01T09:28:31;96725.75;;;33.59;34.49
14689;BME280;7432;48.728;9.154;2022-08-01T09:30:58;96732.28;;;33.89;33.79
14689;BME280;7432;48.728;9.154;2022-08-01T09:33:46;96732.22;;;34.47;33.84
14689;BME280;7432;48.728;9.154;2022-08-01T09:36:13;96728.88;;;35.59;31.93
14689;BME280;7432;48.728;9.154;2022-08-01T09:38:40;96733.31;;;35.90;31.71
14689;BME280;7432;48.728;9.154;2022-08-01T09:41:07;96729.16;;;36.35;31.73
14689;BME280;7432;48.728;9.154;2022-08-01T09:43:34;96749.22;;;38.22;28.94
14689;BME280;7432;48.728;9.154;2022-08-01T09:46:05;96732.88;;;37.44;29.59
14689;BME280;7432;48.728;9.154;2022-08-01T09:48:36;96726.38;;;36.06;30.95
14689;BME280;7432;48.728;9.154;2022-08-01T09:51:05;96728.25;;;35.97;32.50
14689;BME280;7432;48.728;9.154;2022-08-01T09:53:40;96727.63;;;36.00;31.26
14689;BME280;7432;48.728;9.154;2022-08-01T09:56:11;96722.06;;;35.45;32.38
14689;BME280;7432;48.728;9.154;2022-08-01T09:58:52;96727.53;;;32.96;35.98
14689;BME280;7432;48.728;9.154;2022-08-01T10:01:20;96717.47;;;32.01;37.20
14689;BME280;7432;48.728;9.154;2022-08-01T10:04:03;96725.25;;;33.93;35.07
14689;BME280;7432;48.728;9.154;2022-08-01T10:06:30;96718.88;;;34.78;33.86
14689;BME280;7432;48.728;9.154;2022-08-01T10:08:57;96727.19;;;34.76;33.48
14689;BME280;7432;48.728;9.154;2022-08-01T10:11:24;96724.00;;;33.00;36.41
14689;BME280;7432;48.728;9.154;2022-08-01T10:13:50;96721.72;;;32.94;36.33
14689;BME280;7432;48.728;9.154;2022-08-01T10:16:17;96709.78;;;34.96;34.25
14689;BME280;7432;48.728;9.154;2022-08-01T10:18:46;96724.09;;;37.56;30.68
14689;BME280;7432;48.728;9.154;2022-08-01T10:21:14;96726.66;;;38.47;29.54
14689;BME280;7432;48.728;9.154;2022-08-01T10:23:41;96723.50;;;38.45;29.24
14689;BME280;7432;48.728;9.154;2022-08-01T10:26:10;96726.66;;;38.47;29.10
14689;BME280;7432;48.728;9.154;2022-08-01T10:28:38;96723.47;;;37.29;30.27
14689;BME280;7432;48.728;9.154;2022-08-01T10:31:06;96715.16;;;36.21;31.72
14689;BME280;7432;48.728;9.154;2022-08-01T10:33:33;96723.84;;;37.49;29.76
14689;BME280;7432;48.728;9.154;2022-08-01T10:36:01;96723.19;;;38.14;29.43
14689;BME280;7432;48.728;9.154;2022-08-01T10:38:29;96713.81;;;39.89;27.65
14689;BME280;7432;48.728;9.154;2022-08-01T10:40:57;96722.94;;;41.69;25.75
14689;BME280;7432;48.728;9.154;2022-08-01T10:43:23;96726.13;;;42.51;24.83
14689;BME280;7432;48.728;9.154;2022-08-01T10:45:50;96720.28;;;43.43;24.24
14689;BME280;7432;48.728;9.154;2022-08-01T10:48:22;96729.38;;;41.99;24.94
14689;BME280;7432;48.728;9.154;2022-08-01T10:50:52;96714.44;;;40.54;26.43
14689;BME280;7432;48.728;9.154;2022-08-01T10:53:20;96710.66;;;40.43;25.93
14689;BME280;7432;48.728;9.154;2022-08-01T10:55:51;96714.34;;;40.81;25.90
14689;BME280;7432;48.728;9.154;2022-08-01T10:58:22;96707.09;;;39.31;27.13
14689;BME280;7432;48.728;9.154;2022-08-01T11:01:23;96710.69;;;39.23;28.13
14689;BME280;7432;48.728;9.154;2022-08-01T11:04:05;96703.78;;;37.87;29.20
14689;BME280;7432;48.728;9.154;2022-08-01T11:06:43;96706.47;;;36.24;30.51
14689;BME280;7432;48.728;9.154;2022-08-01T11:09:21;96698.53;;;35.16;33.17
14689;BME280;7432;48.728;9.154;2022-08-01T11:12:03;96693.25;;;35.59;31.38
14689;BME280;7432;48.728;9.154;2022-08-01T11:14:32;96695.53;;;36.84;30.97
14689;BME280;7432;48.728;9.154;2022-08-01T11:17:32;96689.22;;;36.42;30.74
14689;BME280;7432;48.728;9.154;2022-08-01T11:20:10;96687.44;;;37.51;29.24
14689;BME280;7432;48.728;9.154;2022-08-01T11:26:19;96683.25;;;37.12;29.57
14689;BME280;7432;48.728;9.154;2022-08-01T11:29:17;96673.13;;;34.66;32.85
14689;BME280;7432;48.728;9.154;2022-08-01T11:31:44;96677.91;;;33.35;34.81
14689;BME280;7432;48.728;9.154;2022-08-01T11:34:11;96682.06;;;32.73;35.45
14689;BME280;7432;48.728;9.154;2022-08-01T11:36:37;96673.63;;;31.75;36.96
14689;BME280;7432;48.728;9.154;2022-08-01T11:39:17;96655.91;;;30.62;38.45
14689;BME280;7432;48.728;9.154;2022-08-01T11:41:45;96656.38;;;30.16;40.36
14689;BME280;7432;48.728;9.154;2022-08-01T11:44:15;96656.94;;;29.79;41.23
14689;BME280;7432;48.728;9.154;2022-08-01T11:46:47;96648.06;;;29.55;41.95
14689;BME280;7432;48.728;9.154;2022-08-01T11:49:28;96649.25;;;29.39;42.13
14689;BME280;7432;48.728;9.154;2022-08-01T11:51:58;96652.50;;;29.21;42.31
14689;BME280;7432;48.728;9.154;2022-08-01T11:54:27;96646.16;;;29.17;42.40
14689;BME280;7432;48.728;9.154;2022-08-01T11:56:55;96645.06;;;29.28;42.07
14689;BME280;7432;48.728;9.154;2022-08-01T11:59:23;96643.69;;;29.35;42.05
14689;BME280;7432;48.728;9.154;2022-08-01T12:01:50;96647.91;;;29.42;41.89
14689;BME280;7432;48.728;9.154;2022-08-01T12:04:16;96638.50;;;29.54;41.97
14689;BME280;7432;48.728;9.154;2022-08-01T12:06:43;96633.16;;;29.59;42.10
14689;BME280;7432;48.728;9.154;2022-08-01T12:09:16;96630.13;;;29.76;41.68
14689;BME280;7432;48.728;9.154;2022-08-01T12:11:43;96625.22;;;29.93;42.12
14689;BME280;7432;48.728;9.154;2022-08-01T12:14:15;96626.22;;;30.02;41.18
14689;BME280;7432;48.728;9.154;2022-08-01T12:16:51;96615.19;;;30.42;40.75
14689;BME280;7432;48.728;9.154;2022-08-01T12:19:20;96620.41;;;30.71;40.38
14689;BME280;7432;48.728;9.154;2022-08-01T12:22:05;96622.31;;;30.94;39.99
14689;BME280;7432;48.728;9.154;2022-08-01T12:24:32;96615.09;;;30.71;38.26
14689;BME280;7432;48.728;9.154;2022-08-01T12:26:59;96619.69;;;30.66;39.70
14689;BME280;7432;48.728;9.154;2022-08-01T12:29:36;96622.25;;;30.52;39.65
14689;BME280;7432;48.728;9.154;2022-08-01T12:32:13;96627.44;;;30.38;39.61
14689;BME280;7432;48.728;9.154;2022-08-01T12:34:46;96623.94;;;30.14;40.64
14689;BME280;7432;48.728;9.154;2022-08-01T12:37:12;96614.13;;;29.86;42.23
14689;BME280;7432;48.728;9.154;2022-08-01T12:39:39;96610.59;;;29.62;42.44
14689;BME280;7432;48.728;9.154;2022-08-01T12:42:07;96608.97;;;29.66;40.85
14689;BME280;7432;48.728;9.154;2022-08-01T12:44:35;96623.06;;;29.95;41.91
14689;BME280;7432;48.728;9.154;2022-08-01T12:47:05;96614.41;;;30.13;40.98
14689;BME280;7432;48.728;9.154;2022-08-01T12:49:32;96614.19;;;30.33;40.00
14689;BME280;7432;48.728;9.154;2022-08-01T12:51:59;96618.06;;;29.93;41.58
14689;BME280;7432;48.728;9.154;2022-08-01T12:54:25;96608.66;;;29.67;40.50
14689;BME280;7432;48.728;9.154;2022-08-01T12:56:52;96608.50;;;29.54;41.58
14689;BME280;7432;48.728;9.154;2022-08-01T12:59:19;96609.50;;;29.63;40.98
14689;BME280;7432;48.728;9.154;2022-08-01T13:01:48;96609.88;;;29.85;41.10
14689;BME280;7432;48.728;9.154;2022-08-01T13:04:16;96608.06;;;30.09;40.58
14689;BME280;7432;48.728;9.154;2022-08-01T13:06:45;96600.50;;;30.21;40.33
14689;BME280;7432;48.728;9.154;2022-08-01T13:09:12;96597.00;;;30.26;39.62
14689;BME280;7432;48.728;9.154;2022-08-01T13:11:39;96600.63;;;30.35;40.79
14689;BME280;7432;48.728;9.154;2022-08-01T13:14:05;96592.97;;;30.28;40.76
14689;BME280;7432;48.728;9.154;2022-08-01T13:16:32;96597.91;;;30.16;40.32
14689;BME280;7432;48.728;9.154;2022-08-01T13:18:58;96599.81;;;29.82;40.88
14689;BME280;7432;48.728;9.154;2022-08-01T13:21:28;96585.19;;;29.12;42.06
14689;BME280;7432;48.728;9.154;2022-08-01T13:24:03;96592.69;;;28.26;43.48